createdAt,value
2022-11-22T00:00:51.851Z,53.09
2022-11-22T00:03:19.664Z,53.03
2022-11-22T00:05:47.437Z,53.03
2022-11-22T00:08:15.309Z,53.39
2022-11-22T00:10:43.106Z,53.25
2022-11-22T00:13:11.092Z,53.63
2022-11-22T00:15:38.862Z,53.49
2022-11-22T00:18:06.713Z,53.69
2022-11-22T00:20:34.897Z,53.53
2022-11-22T00:23:03.138Z,53.60
2022-11-22T00:25:30.902Z,53.63
2022-11-22T00:27:58.647Z,53.04
2022-11-22T00:30:26.424Z,53.39
2022-11-22T00:32:54.199Z,53.73
2022-11-22T00:35:22.072Z,53.78
2022-11-22T00:37:49.859Z,53.71
2022-11-22T00:40:17.814Z,53.62
2022-11-22T00:42:45.868Z,54.03
2022-11-22T00:45:13.660Z,53.92
2022-11-22T00:47:41.418Z,54.17
2022-11-22T00:50:10.451Z,53.98
2022-11-22T00:52:38.224Z,53.76
2022-11-22T00:55:06.842Z,53.93
2022-11-22T00:57:34.607Z,53.88
2022-11-22T01:00:02.395Z,54.03
2022-11-22T01:02:30.161Z,54.12
2022-11-22T01:04:57.860Z,54.08
2022-11-22T01:07:25.696Z,54.36
2022-11-22T01:09:53.511Z,54.42
2022-11-22T01:12:21.262Z,54.34
2022-11-22T01:14:49.112Z,54.18
2022-11-22T01:17:17.485Z,54.60
2022-11-22T01:19:46.075Z,54.94
2022-11-22T01:22:13.874Z,54.62
2022-11-22T01:24:41.654Z,54.82
2022-11-22T01:27:09.515Z,54.97
2022-11-22T01:29:37.301Z,54.65
2022-11-22T01:32:05.561Z,54.88
2022-11-22T01:34:33.328Z,54.89
2022-11-22T01:37:01.119Z,54.77
2022-11-22T01:39:29.144Z,54.92
2022-11-22T01:41:57.117Z,55.17
2022-11-22T01:44:29.316Z,55.02
2022-11-22T01:47:23.577Z,55.41
2022-11-22T01:49:58.146Z,55.31
2022-11-22T01:52:30.836Z,55.60
2022-11-22T01:55:09.064Z,55.42
2022-11-22T01:57:40.513Z,55.69
2022-11-22T02:00:12.465Z,55.81
2022-11-22T02:02:58.393Z,55.56
2022-11-22T02:05:31.321Z,55.79
2022-11-22T02:08:30.815Z,55.52
2022-11-22T02:11:02.251Z,56.00
2022-11-22T02:13:34.726Z,55.76
2022-11-22T02:16:04.165Z,55.74
2022-11-22T02:18:36.621Z,55.88
2022-11-22T02:21:05.803Z,55.81
2022-11-22T02:24:01.665Z,55.75
2022-11-22T02:26:31.336Z,55.58
2022-11-22T02:29:05.754Z,55.94
2022-11-22T02:31:46.549Z,55.77
2022-11-22T02:34:14.771Z,55.84
2022-11-22T02:36:49.584Z,55.89
2022-11-22T02:39:22.726Z,56.03
2022-11-22T02:41:51.540Z,56.03
2022-11-22T02:44:20.445Z,55.92
2022-11-22T02:46:51.942Z,55.85
2022-11-22T02:49:24.227Z,56.17
2022-11-22T02:51:53.438Z,56.04
2022-11-22T02:54:21.481Z,56.38
2022-11-22T02:56:49.360Z,56.04
2022-11-22T02:59:17.103Z,56.14
2022-11-22T03:01:46.911Z,56.01
2022-11-22T03:04:24.832Z,56.31
2022-11-22T03:06:56.237Z,56.36
2022-11-22T03:09:26.155Z,56.17
2022-11-22T03:11:54.717Z,56.29
2022-11-22T03:14:22.507Z,56.15
2022-11-22T03:16:50.974Z,55.89
2022-11-22T03:19:18.846Z,55.88
2022-11-22T03:21:46.857Z,56.18
2022-11-22T03:24:15.023Z,56.15
2022-11-22T03:26:48.426Z,56.43
2022-11-22T03:29:18.122Z,56.51
2022-11-22T03:31:45.982Z,56.30
2022-11-22T03:34:14.154Z,56.36
2022-11-22T03:36:42.791Z,56.33
2022-11-22T03:39:10.639Z,56.43
2022-11-22T03:41:38.473Z,56.59
2022-11-22T03:44:06.528Z,56.58
2022-11-22T03:46:34.491Z,56.67
2022-11-22T03:49:02.319Z,56.49
2022-11-22T03:51:30.108Z,56.40
2022-11-22T03:53:58.426Z,56.18
2022-11-22T03:56:26.224Z,56.37
2022-11-22T03:58:54.464Z,56.12
2022-11-22T04:01:22.256Z,56.18
2022-11-22T04:03:50.215Z,56.11
2022-11-22T04:06:18.480Z,56.04
2022-11-22T04:08:46.289Z,56.04
2022-11-22T04:11:14.088Z,55.97
2022-11-22T04:14:00.712Z,56.15
2022-11-22T04:16:28.461Z,55.90
2022-11-22T04:18:56.236Z,56.29
2022-11-22T04:21:36.148Z,56.24
2022-11-22T04:24:24.923Z,55.83
2022-11-22T04:26:53.580Z,55.59
2022-11-22T04:29:22.339Z,55.71
2022-11-22T04:32:10.585Z,55.73
2022-11-22T04:34:38.484Z,55.79
2022-11-22T04:37:06.938Z,55.65
2022-11-22T04:39:34.867Z,55.98
2022-11-22T04:42:31.952Z,55.65
2022-11-22T04:44:59.675Z,55.69
2022-11-22T04:47:50.084Z,55.88
2022-11-22T04:50:36.993Z,55.55
2022-11-22T04:53:04.934Z,55.72
2022-11-22T04:55:32.721Z,55.46
2022-11-22T04:58:00.662Z,55.41
2022-11-22T05:00:30.216Z,55.61
2022-11-22T05:02:59.399Z,55.21
2022-11-22T05:05:27.878Z,55.56
2022-11-22T05:07:58.409Z,55.41
2022-11-22T05:10:27.302Z,55.27
2022-11-22T05:12:56.112Z,55.42
2022-11-22T05:15:23.980Z,55.45
2022-11-22T05:17:51.887Z,55.48
2022-11-22T05:20:19.663Z,55.64
2022-11-22T05:23:05.945Z,55.63
2022-11-22T05:25:33.686Z,55.83
2022-11-22T05:28:01.438Z,55.66
2022-11-22T05:30:29.182Z,55.87
2022-11-22T05:32:56.942Z,55.83
2022-11-22T05:35:24.677Z,55.75
2022-11-22T05:37:52.450Z,55.80
2022-11-22T05:40:20.202Z,55.57
2022-11-22T05:42:48.089Z,55.78
2022-11-22T05:45:15.977Z,55.93
2022-11-22T05:47:45.450Z,55.19
2022-11-22T05:50:13.652Z,55.31
2022-11-22T05:52:41.520Z,54.90
2022-11-22T05:55:09.597Z,54.84
2022-11-22T05:57:37.375Z,54.94
2022-11-22T06:00:07.577Z,54.87
2022-11-22T06:02:39.663Z,54.55
2022-11-22T06:05:08.045Z,54.93
2022-11-22T06:07:35.898Z,54.78
2022-11-22T06:10:04.203Z,54.88
2022-11-22T06:12:31.950Z,54.97
2022-11-22T06:14:59.677Z,54.87
2022-11-22T06:17:27.436Z,55.06
2022-11-22T06:19:55.182Z,55.06
2022-11-22T06:22:22.988Z,55.09
2022-11-22T06:24:50.724Z,55.16
2022-11-22T06:27:18.554Z,55.12
2022-11-22T06:29:46.356Z,55.23
2022-11-22T06:32:14.165Z,55.04
2022-11-22T06:34:41.949Z,55.11
2022-11-22T06:37:09.746Z,55.09
2022-11-22T06:39:37.855Z,55.09
2022-11-22T06:42:05.822Z,55.10
2022-11-22T06:44:34.301Z,55.31
2022-11-22T06:47:02.063Z,55.36
2022-11-22T06:49:29.923Z,55.26
2022-11-22T06:51:57.910Z,55.35
2022-11-22T06:54:25.604Z,55.00
2022-11-22T06:56:53.402Z,55.08
2022-11-22T06:59:21.273Z,55.06
2022-11-22T07:01:49.080Z,54.92
2022-11-22T07:04:16.871Z,55.14
2022-11-22T07:06:44.667Z,55.12
2022-11-22T07:09:12.644Z,55.40
2022-11-22T07:11:41.558Z,55.08
2022-11-22T07:14:09.679Z,55.40
2022-11-22T07:16:39.145Z,55.06
2022-11-22T07:19:07.591Z,54.81
2022-11-22T07:21:37.538Z,54.84
2022-11-22T07:24:07.288Z,54.81
2022-11-22T07:26:35.097Z,54.77
2022-11-22T07:29:03.598Z,54.36
2022-11-22T07:31:31.452Z,54.45
2022-11-22T07:33:59.244Z,54.35
2022-11-22T07:36:29.593Z,54.62
2022-11-22T07:38:57.600Z,54.52
2022-11-22T07:41:25.581Z,54.66
2022-11-22T07:43:54.399Z,54.45
2022-11-22T07:46:31.078Z,54.28
2022-11-22T07:49:01.383Z,54.15
2022-11-22T07:51:30.310Z,54.15
2022-11-22T07:53:58.664Z,53.86
2022-11-22T07:56:26.727Z,54.07
2022-11-22T07:58:55.344Z,54.16
2022-11-22T08:01:23.731Z,54.15
2022-11-22T08:03:51.658Z,54.18
2022-11-22T08:06:19.385Z,54.03
2022-11-22T08:08:47.176Z,53.95
2022-11-22T08:11:14.986Z,54.00
2022-11-22T08:13:42.856Z,54.06
2022-11-22T08:16:14.684Z,53.96
2022-11-22T08:18:48.286Z,54.26
2022-11-22T08:21:18.776Z,54.31
2022-11-22T08:23:47.782Z,54.26
2022-11-22T08:26:17.979Z,54.13
2022-11-22T08:28:45.832Z,54.29
2022-11-22T08:31:19.625Z,54.50
2022-11-22T08:33:48.875Z,54.29
2022-11-22T08:36:16.684Z,54.33
2022-11-22T08:38:44.939Z,54.16
2022-11-22T08:41:12.868Z,54.03
2022-11-22T08:43:40.989Z,54.34
2022-11-22T08:46:08.779Z,53.96
2022-11-22T08:48:38.513Z,54.24
2022-11-22T08:51:10.117Z,54.00
2022-11-22T08:53:43.527Z,54.13
2022-11-22T08:56:15.201Z,53.77
2022-11-22T08:58:43.353Z,54.03
2022-11-22T09:01:15.608Z,54.11
2022-11-22T09:03:45.043Z,53.72
2022-11-22T09:09:30.106Z,53.70
2022-11-22T09:11:51.307Z,53.28
2022-11-22T09:14:19.067Z,53.58
2022-11-22T09:16:46.826Z,53.49
2022-11-22T09:19:14.670Z,53.29
2022-11-22T09:21:42.461Z,53.04
2022-11-22T09:24:10.252Z,52.88
2022-11-22T09:26:38.029Z,53.17
2022-11-22T09:29:06.473Z,52.92
2022-11-22T09:31:34.277Z,53.17
2022-11-22T09:34:02.216Z,52.89
2022-11-22T09:36:31.003Z,53.40
2022-11-22T09:38:58.967Z,53.40
2022-11-22T09:42:04.447Z,53.48
2022-11-22T09:44:38.224Z,53.18
2022-11-22T09:48:10.059Z,53.26
2022-11-22T09:51:06.776Z,53.20
2022-11-22T09:53:59.367Z,53.28
2022-11-22T09:56:29.572Z,53.20
2022-11-22T09:59:03.503Z,53.55
2022-11-22T10:01:45.915Z,53.45
2022-11-22T10:04:33.041Z,53.33
2022-11-22T10:07:10.724Z,53.44
2022-11-22T10:09:54.852Z,53.30
2022-11-22T10:12:37.044Z,52.92
2022-11-22T10:15:42.872Z,53.23
2022-11-22T10:18:43.661Z,53.30
2022-11-22T10:21:15.395Z,53.14
2022-11-22T10:23:45.033Z,52.99
2022-11-22T10:26:35.189Z,53.62
2022-11-22T10:29:37.495Z,53.02
2022-11-22T10:32:35.179Z,53.18
2022-11-22T10:35:22.524Z,53.19
2022-11-22T10:38:11.595Z,52.90
2022-11-22T10:40:51.100Z,53.14
2022-11-22T10:43:45.623Z,53.13
2022-11-22T10:46:28.066Z,52.71
2022-11-22T10:49:49.255Z,52.74
2022-11-22T10:52:46.920Z,52.52
2022-11-22T10:55:38.331Z,52.41
2022-11-22T10:58:35.819Z,52.02
2022-11-22T11:01:40.358Z,52.04
2022-11-22T11:04:12.306Z,51.17
2022-11-22T11:10:26.267Z,51.06
2022-11-22T11:13:41.963Z,50.77
2022-11-22T11:16:15.371Z,50.18
2022-11-22T11:19:15.036Z,50.96
2022-11-22T11:21:42.878Z,50.28
2022-11-22T11:24:16.578Z,49.58
2022-11-22T11:26:54.508Z,50.10
2022-11-22T11:29:58.622Z,49.69
2022-11-22T11:32:27.351Z,49.34
2022-11-22T11:35:04.778Z,49.39
2022-11-22T11:37:35.552Z,48.81
2022-11-22T11:40:28.874Z,48.48
2022-11-22T11:43:42.028Z,48.58
2022-11-22T11:46:27.485Z,48.69
2022-11-22T11:49:17.311Z,48.73
2022-11-22T11:51:48.742Z,48.51
2022-11-22T11:54:25.857Z,48.43
2022-11-22T11:56:56.626Z,48.29
2022-11-22T11:59:37.685Z,47.36
2022-11-22T12:02:24.810Z,47.18
2022-11-22T12:04:53.582Z,47.33
2022-11-22T12:07:25.693Z,47.62
2022-11-22T12:09:56.016Z,47.22
2022-11-22T12:12:52.621Z,47.42
2022-11-22T12:15:45.607Z,47.34
2022-11-22T12:18:44.597Z,47.26
2022-11-22T12:21:41.137Z,47.45
2022-11-22T12:27:03.861Z,46.76
2022-11-22T12:29:35.592Z,47.14
2022-11-22T12:32:18.597Z,46.33
2022-11-22T12:35:03.384Z,46.41
2022-11-22T12:37:49.846Z,45.80
2022-11-22T12:40:47.327Z,46.85
2022-11-22T12:43:25.451Z,47.11
2022-11-22T12:46:00.674Z,46.35
2022-11-22T12:48:34.757Z,46.32
2022-11-22T12:51:28.362Z,46.37
2022-11-22T12:54:02.101Z,46.23
2022-11-22T12:56:49.519Z,46.76
2022-11-22T12:59:57.757Z,46.35
2022-11-22T13:02:58.629Z,45.99
2022-11-22T13:05:51.827Z,46.32
2022-11-22T13:08:51.612Z,46.03
2022-11-22T13:11:45.120Z,45.69
2022-11-22T13:14:47.568Z,45.86
2022-11-22T13:17:17.636Z,46.22
2022-11-22T13:19:54.224Z,45.39
2022-11-22T13:22:57.796Z,45.94
2022-11-22T13:25:44.029Z,45.69
2022-11-22T13:28:20.755Z,45.72
2022-11-22T13:31:24.328Z,46.13
2022-11-22T13:33:57.417Z,45.61
2022-11-22T13:36:45.367Z,45.62
2022-11-22T13:39:20.387Z,45.15
2022-11-22T13:41:57.082Z,44.85
2022-11-22T13:44:30.919Z,45.10
2022-11-22T13:47:00.839Z,45.03
2022-11-22T13:49:48.816Z,45.01
2022-11-22T13:52:23.478Z,45.23
2022-11-22T13:54:53.238Z,44.97
2022-11-22T13:57:38.863Z,45.48
2022-11-22T14:00:12.985Z,45.66
2022-11-22T14:02:47.931Z,45.32
2022-11-22T14:05:36.580Z,45.59
2022-11-22T14:08:42.419Z,45.53
2022-11-22T14:11:40.719Z,45.09
2022-11-22T14:14:28.880Z,45.32
2022-11-22T14:18:04.715Z,45.47
2022-11-22T14:20:57.441Z,45.29
2022-11-22T14:24:02.146Z,45.67
2022-11-22T14:26:39.271Z,45.83
2022-11-22T14:29:53.505Z,45.46
2022-11-22T14:32:24.616Z,45.57
2022-11-22T14:35:04.459Z,45.69
2022-11-22T14:37:32.481Z,45.90
2022-11-22T14:40:07.547Z,45.50
2022-11-22T14:42:40.000Z,46.18
2022-11-22T14:45:10.556Z,45.81
2022-11-22T14:47:51.987Z,45.78
2022-11-22T14:50:38.904Z,45.74
2022-11-22T14:53:39.448Z,45.60
2022-11-22T14:56:13.211Z,45.68
2022-11-22T14:59:01.108Z,45.86
2022-11-22T15:01:54.785Z,46.00
2022-11-22T15:09:12.132Z,45.73
2022-11-22T15:09:13.537Z,46.06
2022-11-22T15:11:20.653Z,45.78
2022-11-22T15:14:21.287Z,45.67
2022-11-22T15:57:52.658Z,47.00
2022-11-22T16:00:24.674Z,46.78
2022-11-22T16:03:02.963Z,46.79
2022-11-22T16:06:06.352Z,46.54
2022-11-22T16:08:27.936Z,46.50
2022-11-22T16:11:00.442Z,46.70
2022-11-22T16:13:34.710Z,46.74
2022-11-22T16:16:12.960Z,46.63
2022-11-22T16:18:42.761Z,46.50
2022-11-22T16:21:11.189Z,46.95
2022-11-22T16:23:41.013Z,46.59
2022-11-22T16:26:19.010Z,46.71
2022-11-22T16:28:51.230Z,46.68
2022-11-22T16:31:31.588Z,46.88
2022-11-22T16:33:59.799Z,47.26
2022-11-22T16:36:32.138Z,47.37
2022-11-22T16:39:00.084Z,47.16
2022-11-22T16:41:29.443Z,47.08
2022-11-22T16:44:21.192Z,47.14
2022-11-22T16:46:49.016Z,47.42
2022-11-22T16:49:22.252Z,47.57
2022-11-22T16:51:51.173Z,47.57
2022-11-22T16:54:21.289Z,47.71
2022-11-22T16:56:49.029Z,47.71
2022-11-22T16:59:16.816Z,47.73
2022-11-22T17:01:44.896Z,47.60
2022-11-22T17:04:25.345Z,47.72
2022-11-22T17:06:53.412Z,47.63
2022-11-22T17:09:21.198Z,48.18
2022-11-22T17:11:49.309Z,47.73
2022-11-22T17:14:19.539Z,48.25
2022-11-22T17:16:47.615Z,48.15
2022-11-22T17:19:52.173Z,48.10
2022-11-22T17:22:07.191Z,48.38
2022-11-22T17:24:35.814Z,48.28
2022-11-22T17:27:03.609Z,48.41
2022-11-22T17:32:19.807Z,48.54
2022-11-22T17:34:47.621Z,48.49
2022-11-22T17:37:15.640Z,48.80
2022-11-22T17:39:43.389Z,49.13
2022-11-22T17:42:12.117Z,49.33
2022-11-22T17:44:39.923Z,49.11
2022-11-22T17:47:08.795Z,48.79
2022-11-22T17:49:36.574Z,48.59
2022-11-22T17:52:04.634Z,48.96
2022-11-22T17:54:32.418Z,48.97
2022-11-22T17:57:00.214Z,48.90
2022-11-22T17:59:28.159Z,49.25
2022-11-22T18:01:55.999Z,49.29
2022-11-22T18:04:23.784Z,49.37
2022-11-22T18:06:51.572Z,49.15
2022-11-22T18:09:19.356Z,49.19
2022-11-22T18:11:47.680Z,49.06
2022-11-22T18:14:15.522Z,49.14
2022-11-22T18:16:43.394Z,48.93
2022-11-22T18:19:11.366Z,49.27
2022-11-22T18:21:39.140Z,49.26
2022-11-22T18:24:08.567Z,49.61
2022-11-22T18:26:40.720Z,49.74
2022-11-22T18:32:00.730Z,49.93
2022-11-22T18:34:29.376Z,49.65
2022-11-22T18:37:01.880Z,49.74
2022-11-22T18:39:37.963Z,49.72
2022-11-22T18:42:10.503Z,49.62
2022-11-22T18:44:38.340Z,49.70
2022-11-22T18:47:06.217Z,50.27
2022-11-22T18:49:34.750Z,50.16
2022-11-22T18:52:02.900Z,50.11
2022-11-22T18:54:31.141Z,49.98
2022-11-22T18:56:59.430Z,50.39
2022-11-22T18:59:27.405Z,50.16
2022-11-22T19:01:55.636Z,50.24
2022-11-22T19:04:23.431Z,50.39
2022-11-22T19:06:51.769Z,50.47
2022-11-22T19:09:19.621Z,50.51
2022-11-22T19:11:47.374Z,50.47
2022-11-22T19:14:15.245Z,50.76
2022-11-22T19:16:43.444Z,50.39
2022-11-22T19:19:12.246Z,50.37
2022-11-22T19:21:40.226Z,50.83
2022-11-22T19:24:08.256Z,50.86
2022-11-22T19:26:36.143Z,50.87
2022-11-22T19:29:04.959Z,50.53
2022-11-22T19:31:33.753Z,50.86
2022-11-22T19:34:01.547Z,51.05
2022-11-22T19:36:33.800Z,51.11
2022-11-22T19:39:05.976Z,50.92
2022-11-22T19:41:34.294Z,50.73
2022-11-22T19:44:02.133Z,50.76
2022-11-22T19:46:30.408Z,51.29
2022-11-22T19:48:59.937Z,50.89
2022-11-22T19:51:30.881Z,51.37
2022-11-22T19:54:02.782Z,51.21
2022-11-22T19:56:34.207Z,51.36
2022-11-22T19:59:05.177Z,51.13
2022-11-22T20:01:35.284Z,50.99
2022-11-22T20:04:06.480Z,51.40
2022-11-22T20:06:36.511Z,51.30
2022-11-22T20:09:10.931Z,51.29
2022-11-22T20:11:40.267Z,51.39
2022-11-22T20:14:09.560Z,51.69
2022-11-22T20:16:42.901Z,51.55
2022-11-22T20:19:12.406Z,51.52
2022-11-22T20:21:40.854Z,51.99
2022-11-22T20:24:09.039Z,51.77
2022-11-22T20:26:36.793Z,51.76
2022-11-22T20:29:08.162Z,51.82
2022-11-22T20:31:38.426Z,51.92
2022-11-22T20:34:06.290Z,51.77
2022-11-22T20:36:35.465Z,51.98
2022-11-22T20:39:08.576Z,52.21
2022-11-22T20:41:38.491Z,52.21
2022-11-22T20:44:09.548Z,52.32
2022-11-22T20:46:38.215Z,52.14
2022-11-22T20:49:06.546Z,52.37
2022-11-22T20:51:39.713Z,52.32
2022-11-22T20:54:08.767Z,52.15
2022-11-22T20:56:38.153Z,52.56
2022-11-22T20:59:06.000Z,52.29
2022-11-22T21:01:33.852Z,52.63
2022-11-22T21:04:01.929Z,52.69
2022-11-22T21:06:29.876Z,52.40
2022-11-22T21:08:57.694Z,52.37
2022-11-22T21:11:28.375Z,52.50
2022-11-22T21:13:57.775Z,52.87
2022-11-22T21:16:29.130Z,52.78
2022-11-22T21:19:05.064Z,52.85
2022-11-22T21:21:35.779Z,53.02
2022-11-22T21:24:06.035Z,52.79
2022-11-22T21:26:34.801Z,53.25
2022-11-22T21:29:04.883Z,52.99
2022-11-22T21:31:32.617Z,53.06
2022-11-22T21:34:00.403Z,53.35
2022-11-22T21:36:28.170Z,53.20
2022-11-22T21:38:55.936Z,53.22
2022-11-22T21:41:40.562Z,53.20
2022-11-22T21:44:10.649Z,53.19
2022-11-22T21:46:38.961Z,53.06
2022-11-22T21:49:07.206Z,53.36
2022-11-22T21:51:35.052Z,53.40
2022-11-22T21:54:03.683Z,53.49
2022-11-22T21:56:31.748Z,53.22
2022-11-22T21:59:00.020Z,53.17
2022-11-22T22:01:28.635Z,53.11
2022-11-22T22:03:56.540Z,53.35
2022-11-22T22:06:25.271Z,53.19
2022-11-22T22:08:53.071Z,53.36
2022-11-22T22:11:21.365Z,53.20
2022-11-22T22:13:49.377Z,53.32
2022-11-22T22:16:19.359Z,53.12
2022-11-22T22:18:47.540Z,52.86
2022-11-22T22:21:17.240Z,53.18
2022-11-22T22:23:46.126Z,53.16
2022-11-22T22:26:17.060Z,53.22
2022-11-22T22:28:45.991Z,53.16
2022-11-22T22:31:23.122Z,53.48
2022-11-22T22:33:56.183Z,53.42
2022-11-22T22:36:26.544Z,53.60
2022-11-22T22:38:55.190Z,53.39
2022-11-22T22:41:23.053Z,53.60
2022-11-22T22:43:51.598Z,53.44
2022-11-22T22:46:27.242Z,53.52
2022-11-22T22:48:55.079Z,53.77
2022-11-22T22:51:33.127Z,53.44
2022-11-22T22:54:01.842Z,53.61
2022-11-22T22:56:31.388Z,53.46
2022-11-22T22:59:01.087Z,53.56
2022-11-22T23:01:31.361Z,53.42
2022-11-22T23:04:01.575Z,53.43
2022-11-22T23:06:33.309Z,53.86
2022-11-22T23:09:02.492Z,53.66
2022-11-22T23:11:50.645Z,54.15
2022-11-22T23:14:25.373Z,53.91
2022-11-22T23:16:57.567Z,54.00
2022-11-22T23:19:27.335Z,54.41
2022-11-22T23:21:55.730Z,54.33
2022-11-22T23:24:23.528Z,53.95
2022-11-22T23:26:51.450Z,54.47
2022-11-22T23:29:19.494Z,54.28
2022-11-22T23:31:47.220Z,54.25
2022-11-22T23:34:15.210Z,54.18
2022-11-22T23:36:42.978Z,54.30
2022-11-22T23:39:11.672Z,54.47
2022-11-22T23:41:39.394Z,54.33
2022-11-22T23:44:07.396Z,54.19
2022-11-22T23:46:35.192Z,54.07
2022-11-22T23:49:05.749Z,54.18
2022-11-22T23:51:35.258Z,54.49
2022-11-22T23:54:05.824Z,54.26
2022-11-22T23:56:35.703Z,54.23
2022-11-22T23:59:05.672Z,54.35
